createdAt,value
2018-04-06T00:00:33.864Z,80.01
2018-04-06T00:03:02.589Z,80.35
2018-04-06T00:05:31.409Z,81.24
2018-04-06T00:08:00.132Z,80.84
2018-04-06T00:10:28.865Z,81.37
2018-04-06T00:12:57.446Z,81.33
2018-04-06T00:15:27.805Z,81.53
2018-04-06T00:17:56.530Z,82.08
2018-04-06T00:20:25.158Z,82.22
2018-04-06T00:22:54.468Z,82.34
2018-04-06T00:25:23.390Z,81.74
2018-04-06T00:27:52.112Z,81.36
2018-04-06T00:30:20.833Z,80.39
2018-04-06T00:32:49.756Z,81.77
2018-04-06T00:35:18.391Z,82.30
2018-04-06T00:37:47.044Z,82.26
2018-04-06T00:40:15.708Z,82.81
2018-04-06T00:42:44.277Z,83.10
2018-04-06T00:45:13.682Z,83.08
2018-04-06T00:47:42.388Z,83.16
2018-04-06T00:50:11.019Z,83.21
2018-04-06T00:52:39.632Z,83.80
2018-04-06T00:55:08.211Z,84.25
2018-04-06T00:57:37.790Z,84.28
2018-04-06T01:00:06.502Z,84.58
2018-04-06T01:02:35.126Z,85.38
2018-04-06T01:05:03.943Z,85.87
2018-04-06T01:07:32.665Z,86.17
2018-04-06T01:10:01.389Z,85.83
2018-04-06T01:12:30.216Z,85.53
2018-04-06T01:14:58.831Z,85.25
2018-04-06T01:17:27.554Z,85.90
2018-04-06T01:19:56.275Z,86.21
2018-04-06T01:22:25.598Z,85.85
2018-04-06T01:24:54.321Z,86.14
2018-04-06T01:27:23.644Z,86.33
2018-04-06T01:29:52.970Z,86.58
2018-04-06T01:32:21.692Z,86.64
2018-04-06T01:34:50.412Z,86.53
2018-04-06T01:37:19.135Z,86.58
2018-04-06T01:39:48.158Z,86.66
2018-04-06T01:42:16.778Z,86.91
2018-04-06T01:44:45.367Z,87.01
2018-04-06T01:47:14.124Z,87.03
2018-04-06T01:49:42.803Z,86.74
2018-04-06T01:52:11.464Z,86.56
2018-04-06T01:54:40.186Z,86.64
2018-04-06T01:57:08.912Z,86.90
2018-04-06T01:59:37.632Z,86.81
2018-04-06T02:02:07.055Z,86.82
2018-04-06T02:04:35.877Z,86.78
2018-04-06T02:07:04.500Z,87.78
2018-04-06T02:09:33.220Z,87.89
2018-04-06T02:12:01.942Z,88.07
2018-04-06T02:14:30.663Z,88.14
2018-04-06T02:16:59.386Z,87.73
2018-04-06T02:19:28.113Z,87.82
2018-04-06T02:21:56.735Z,88.27
2018-04-06T02:24:25.361Z,87.55
2018-04-06T02:26:54.674Z,87.67
2018-04-06T02:29:23.500Z,88.28
2018-04-06T02:31:52.332Z,89.51
2018-04-06T02:34:21.603Z,89.70
2018-04-06T02:36:50.268Z,89.89
2018-04-06T02:39:18.986Z,89.79
2018-04-06T02:41:48.315Z,90.04
2018-04-06T02:44:16.957Z,89.83
2018-04-06T02:47:09.612Z,89.75
2018-04-06T02:49:38.360Z,89.75
2018-04-06T02:52:06.976Z,90.12
2018-04-06T02:54:35.622Z,90.21
2018-04-06T02:57:04.403Z,90.29
2018-04-06T02:59:33.018Z,89.81
2018-04-06T03:02:01.770Z,89.74
2018-04-06T03:04:31.005Z,89.42
2018-04-06T03:06:59.815Z,89.00
2018-04-06T03:09:29.439Z,89.18
2018-04-06T03:11:58.160Z,88.92
2018-04-06T03:14:26.896Z,87.97
2018-04-06T03:16:55.511Z,87.68
2018-04-06T03:19:24.227Z,87.60
2018-04-06T03:21:52.948Z,87.49
2018-04-06T03:24:21.486Z,87.14
2018-04-06T03:26:50.152Z,86.73
2018-04-06T03:29:18.830Z,86.84
2018-04-06T03:31:47.438Z,87.39
2018-04-06T03:34:16.155Z,87.71
2018-04-06T03:36:44.777Z,87.34
2018-04-06T03:39:13.398Z,87.45
2018-04-06T03:41:42.353Z,87.72
2018-04-06T03:44:11.054Z,87.47
2018-04-06T03:46:39.678Z,87.55
2018-04-06T03:49:08.385Z,87.55
2018-04-06T03:51:37.010Z,87.81
2018-04-06T03:54:05.811Z,88.18
2018-04-06T03:56:34.554Z,88.35
2018-04-06T03:59:03.375Z,88.98
2018-04-06T04:01:32.800Z,89.00
2018-04-06T04:04:01.443Z,89.06
2018-04-06T04:06:30.146Z,89.13
2018-04-06T04:08:58.964Z,89.06
2018-04-06T04:11:27.603Z,89.22
2018-04-06T04:13:56.320Z,89.36
2018-04-06T04:16:25.069Z,89.30
2018-04-06T04:18:53.687Z,89.08
2018-04-06T04:21:22.291Z,89.33
2018-04-06T04:23:51.096Z,89.19
2018-04-06T04:26:19.722Z,88.87
2018-04-06T04:28:48.421Z,88.53
2018-04-06T04:31:17.006Z,88.60
2018-04-06T04:33:45.782Z,88.39
2018-04-06T04:36:14.404Z,87.94
2018-04-06T04:38:43.118Z,88.10
2018-04-06T04:41:11.706Z,87.07
2018-04-06T04:43:40.276Z,86.79
2018-04-06T04:46:09.794Z,87.19
2018-04-06T04:48:38.414Z,87.08
2018-04-06T04:51:06.995Z,87.08
2018-04-06T04:53:35.560Z,87.29
2018-04-06T04:56:04.182Z,87.31
2018-04-06T04:58:32.733Z,87.46
2018-04-06T05:01:01.389Z,87.31
2018-04-06T05:03:30.145Z,87.13
2018-04-06T05:05:58.926Z,86.79
2018-04-06T05:08:27.568Z,86.75
2018-04-06T05:10:56.209Z,86.63
2018-04-06T05:13:24.947Z,86.57
2018-04-06T05:15:53.530Z,86.47
2018-04-06T05:18:22.777Z,86.37
2018-04-06T05:20:51.381Z,86.00
2018-04-06T05:23:20.092Z,85.63
2018-04-06T05:25:49.160Z,85.18
2018-04-06T05:28:17.773Z,85.41
2018-04-06T05:30:46.386Z,85.23
2018-04-06T05:33:15.104Z,83.73
2018-04-06T05:35:43.753Z,83.41
2018-04-06T05:38:12.293Z,83.09
2018-04-06T05:40:40.934Z,82.57
2018-04-06T05:43:09.592Z,78.81
2018-04-06T05:45:38.313Z,79.11
2018-04-06T05:48:06.884Z,78.60
2018-04-06T05:50:35.657Z,76.82
2018-04-06T05:53:04.285Z,76.69
2018-04-06T05:55:33.503Z,75.77
2018-04-06T05:58:02.306Z,76.28
2018-04-06T06:00:31.049Z,76.39
2018-04-06T06:03:00.470Z,76.22
2018-04-06T06:05:29.092Z,76.53
2018-04-06T06:07:57.815Z,76.63
2018-04-06T06:10:26.436Z,77.09
2018-04-06T06:12:55.065Z,76.14
2018-04-06T06:15:23.779Z,76.01
2018-04-06T06:17:52.535Z,76.58
2018-04-06T06:20:21.324Z,77.06
2018-04-06T06:22:49.951Z,76.78
2018-04-06T06:25:18.646Z,76.58
2018-04-06T06:27:47.395Z,75.34
2018-04-06T06:30:16.011Z,73.88
2018-04-06T06:32:50.735Z,73.36
2018-04-06T06:35:19.478Z,74.08
2018-04-06T06:37:48.194Z,72.30
2018-04-06T06:40:16.916Z,72.12
2018-04-06T06:42:46.246Z,72.08
2018-04-06T06:45:14.963Z,71.12
2018-04-06T06:47:43.583Z,71.15
2018-04-06T06:50:13.009Z,70.78
2018-04-06T06:52:41.731Z,71.14
2018-04-06T06:55:10.453Z,70.83
2018-04-06T06:57:39.080Z,70.03
2018-04-06T07:00:07.708Z,70.63
2018-04-06T07:02:36.416Z,69.90
2018-04-06T07:05:05.141Z,70.66
2018-04-06T07:07:33.688Z,70.99
2018-04-06T07:10:02.482Z,70.75
2018-04-06T07:12:31.204Z,70.78
2018-04-06T07:15:00.027Z,70.78
2018-04-06T07:17:28.748Z,71.02
2018-04-06T07:19:57.777Z,71.12
2018-04-06T07:22:26.391Z,70.89
2018-04-06T07:24:55.013Z,71.14
2018-04-06T07:27:23.654Z,71.58
2018-04-06T07:29:52.295Z,72.31
2018-04-06T07:32:20.887Z,71.00
2018-04-06T07:34:49.602Z,70.85
2018-04-06T07:37:18.341Z,70.15
2018-04-06T07:39:47.245Z,69.67
2018-04-06T07:42:15.866Z,69.43
2018-04-06T07:44:44.590Z,68.86
2018-04-06T07:47:13.321Z,68.56
2018-04-06T07:49:42.032Z,68.29
2018-04-06T07:52:10.684Z,68.07
2018-04-06T07:54:39.475Z,67.35
2018-04-06T07:57:08.245Z,67.44
2018-04-06T07:59:37.220Z,67.75
2018-04-06T08:02:07.547Z,68.29
2018-04-06T08:04:36.277Z,67.99
2018-04-06T08:07:04.991Z,68.83
2018-04-06T08:09:33.620Z,68.54
2018-04-06T08:12:02.358Z,69.11
2018-04-06T08:14:31.058Z,69.08
2018-04-06T08:16:59.783Z,69.38
2018-04-06T08:19:28.501Z,69.07
2018-04-06T08:21:57.226Z,68.13
2018-04-06T08:24:25.845Z,68.63
2018-04-06T08:26:54.431Z,68.56
2018-04-06T08:29:23.991Z,68.37
2018-04-06T08:31:52.592Z,68.40
2018-04-06T08:34:21.333Z,68.10
2018-04-06T08:36:50.055Z,68.32
2018-04-06T08:39:18.739Z,68.34
2018-04-06T08:41:47.381Z,68.19
2018-04-06T08:44:16.127Z,68.05
2018-04-06T08:46:44.845Z,67.91
2018-04-06T08:49:13.463Z,67.98
2018-04-06T08:51:42.184Z,68.08
2018-04-06T08:54:10.889Z,68.58
2018-04-06T08:56:39.631Z,68.58
2018-04-06T08:59:08.352Z,68.54
2018-04-06T09:01:37.073Z,68.90
2018-04-06T09:04:05.799Z,68.01
2018-04-06T09:06:34.418Z,68.17
2018-04-06T09:09:03.206Z,68.86
2018-04-06T09:11:31.833Z,68.40
2018-04-06T09:14:00.585Z,68.61
2018-04-06T09:16:29.202Z,68.27
2018-04-06T09:18:57.928Z,68.70
2018-04-06T09:21:26.553Z,68.47
2018-04-06T09:23:55.371Z,68.51
2018-04-06T09:26:24.090Z,68.52
2018-04-06T09:28:52.735Z,68.53
2018-04-06T09:31:21.292Z,69.43
2018-04-06T09:33:50.059Z,69.70
2018-04-06T09:36:18.681Z,70.67
2018-04-06T09:38:47.847Z,71.20
2018-04-06T09:41:16.538Z,72.31
2018-04-06T09:43:45.231Z,72.45
2018-04-06T09:46:13.966Z,72.82
2018-04-06T09:48:42.508Z,73.33
2018-04-06T09:51:11.211Z,74.43
2018-04-06T09:53:39.930Z,74.03
2018-04-06T09:56:08.491Z,74.22
2018-04-06T09:58:37.175Z,74.65
2018-04-06T10:01:07.604Z,74.75
2018-04-06T10:03:36.183Z,74.88
2018-04-06T10:06:06.225Z,74.97
2018-04-06T10:08:35.974Z,75.05
2018-04-06T10:11:04.861Z,76.19
2018-04-06T10:13:33.502Z,75.93
2018-04-06T10:16:02.140Z,75.82
2018-04-06T10:18:30.695Z,76.70
2018-04-06T10:20:59.450Z,77.29
2018-04-06T10:23:28.128Z,77.32
2018-04-06T10:25:56.726Z,76.98
2018-04-06T10:28:25.357Z,77.09
2018-04-06T10:30:54.072Z,77.16
2018-04-06T10:33:22.791Z,77.46
2018-04-06T10:35:51.513Z,77.84
2018-04-06T10:38:20.738Z,77.17
2018-04-06T10:40:49.463Z,77.57
2018-04-06T10:43:18.181Z,77.62
2018-04-06T10:45:46.804Z,77.59
2018-04-06T10:48:15.526Z,78.38
2018-04-06T10:50:44.107Z,78.38
2018-04-06T10:53:12.742Z,79.54
2018-04-06T10:55:41.596Z,79.17
2018-04-06T10:58:10.426Z,78.24
2018-04-06T11:00:39.134Z,77.38
2018-04-06T11:03:07.855Z,77.05
2018-04-06T11:05:36.579Z,76.87
2018-04-06T11:08:05.399Z,76.59
2018-04-06T11:10:34.038Z,76.01
2018-04-06T11:13:02.743Z,75.77
2018-04-06T11:15:31.464Z,75.69
2018-04-06T11:18:00.188Z,75.74
2018-04-06T11:20:29.994Z,76.86
2018-04-06T11:22:58.558Z,75.86
2018-04-06T11:25:27.254Z,76.75
2018-04-06T11:27:55.858Z,77.23
2018-04-06T11:30:24.601Z,76.78
2018-04-06T11:32:53.319Z,76.63
2018-04-06T11:35:21.849Z,76.10
2018-04-06T11:37:50.476Z,75.76
2018-04-06T11:40:19.026Z,75.31
2018-04-06T11:42:47.606Z,75.18
2018-04-06T11:45:16.328Z,75.54
2018-04-06T11:47:45.049Z,75.69
2018-04-06T11:50:13.775Z,75.92
2018-04-06T11:52:43.196Z,76.00
2018-04-06T11:55:11.823Z,76.19
2018-04-06T11:57:40.539Z,76.67
2018-04-06T12:00:09.363Z,76.43
2018-04-06T12:02:37.982Z,76.44
2018-04-06T12:05:06.609Z,75.81
2018-04-06T12:07:35.321Z,75.66
2018-04-06T12:10:04.150Z,76.68
2018-04-06T12:12:32.869Z,75.84
2018-04-06T12:15:01.493Z,76.35
2018-04-06T12:17:30.058Z,76.22
2018-04-06T12:19:58.805Z,75.02
2018-04-06T12:22:27.493Z,74.20
2018-04-06T12:24:56.186Z,72.99
2018-04-06T12:27:24.743Z,71.59
2018-04-06T12:29:53.420Z,71.14
2018-04-06T12:32:22.042Z,70.52
2018-04-06T12:34:50.765Z,70.92
2018-04-06T12:37:19.394Z,71.45
2018-04-06T12:39:48.107Z,70.28
2018-04-06T12:42:16.657Z,70.77
2018-04-06T12:44:45.350Z,69.81
2018-04-06T12:47:14.774Z,68.06
2018-04-06T12:49:43.497Z,67.20
2018-04-06T12:52:12.221Z,66.75
2018-04-06T12:54:40.942Z,67.00
2018-04-06T12:57:10.489Z,65.41
2018-04-06T12:59:39.187Z,65.59
2018-04-06T13:02:08.110Z,63.87
2018-04-06T13:04:36.840Z,63.79
2018-04-06T13:07:05.427Z,63.82
2018-04-06T13:09:34.022Z,63.65
2018-04-06T13:12:02.606Z,61.87
2018-04-06T13:14:31.223Z,62.01
2018-04-06T13:16:59.938Z,61.90
2018-04-06T13:19:28.560Z,60.13
2018-04-06T13:21:57.385Z,60.30
2018-04-06T13:24:26.105Z,60.47
2018-04-06T13:26:54.828Z,59.23
2018-04-06T13:29:23.651Z,58.81
2018-04-06T13:31:52.297Z,57.57
2018-04-06T13:34:20.953Z,58.67
2018-04-06T13:36:49.612Z,58.98
2018-04-06T13:39:18.642Z,59.59
2018-04-06T13:41:47.215Z,60.35
2018-04-06T13:44:15.893Z,60.72
2018-04-06T13:46:44.614Z,60.62
2018-04-06T13:49:13.224Z,61.16
2018-04-06T13:51:41.946Z,60.85
2018-04-06T13:54:10.666Z,60.62
2018-04-06T13:56:39.393Z,61.41
2018-04-06T13:59:08.026Z,61.19
2018-04-06T14:01:36.646Z,61.71
2018-04-06T14:04:05.252Z,61.19
2018-04-06T14:06:36.081Z,60.43
2018-04-06T14:09:04.804Z,60.82
2018-04-06T14:11:33.603Z,61.03
2018-04-06T14:14:02.347Z,60.89
2018-04-06T14:16:34.982Z,60.83
2018-04-06T14:19:03.707Z,61.69
2018-04-06T14:21:33.572Z,60.43
2018-04-06T14:24:02.360Z,60.90
2018-04-06T14:26:31.080Z,61.39
2018-04-06T14:28:59.772Z,61.13
2018-04-06T14:31:28.344Z,62.25
2018-04-06T14:33:57.107Z,61.57
2018-04-06T14:36:25.865Z,62.07
2018-04-06T14:38:54.499Z,62.34
2018-04-06T14:41:23.187Z,62.60
2018-04-06T14:43:51.926Z,62.58
2018-04-06T14:46:20.756Z,63.69
2018-04-06T14:48:50.278Z,64.13
2018-04-06T14:51:19.003Z,64.08
2018-04-06T14:53:47.626Z,64.59
2018-04-06T14:56:16.339Z,64.93
2018-04-06T14:58:44.979Z,64.89
2018-04-06T15:01:13.584Z,65.54
2018-04-06T15:03:42.229Z,66.98
2018-04-06T15:06:10.825Z,66.87
2018-04-06T15:08:39.456Z,65.00
2018-04-06T15:11:08.173Z,63.39
2018-04-06T15:13:36.890Z,63.37
2018-04-06T15:16:05.614Z,63.50
2018-04-06T15:18:34.438Z,63.72
2018-04-06T15:21:03.156Z,64.37
2018-04-06T15:23:31.880Z,65.16
2018-04-06T15:26:00.524Z,65.10
2018-04-06T15:28:29.999Z,65.46
2018-04-06T15:30:58.653Z,65.74
2018-04-06T15:33:27.369Z,65.60
2018-04-06T15:35:56.050Z,65.51
2018-04-06T15:38:24.692Z,65.36
2018-04-06T15:40:53.440Z,65.27
2018-04-06T15:43:22.004Z,65.73
2018-04-06T15:45:50.776Z,65.50
2018-04-06T15:48:19.403Z,64.96
2018-04-06T15:50:48.123Z,65.22
2018-04-06T15:53:16.701Z,65.07
2018-04-06T15:55:45.432Z,64.73
2018-04-06T15:58:14.109Z,65.19
2018-04-06T16:00:43.123Z,65.13
2018-04-06T16:03:11.839Z,64.64
2018-04-06T16:05:40.914Z,64.52
2018-04-06T16:08:09.591Z,64.65
2018-04-06T16:10:38.983Z,64.69
2018-04-06T16:13:07.723Z,64.62
2018-04-06T16:15:36.343Z,64.61
2018-04-06T16:18:04.966Z,64.22
2018-04-06T16:20:33.590Z,64.87
2018-04-06T16:23:02.235Z,65.32
2018-04-06T16:25:30.855Z,65.49
2018-04-06T16:27:59.649Z,65.67
2018-04-06T16:30:28.374Z,65.80
2018-04-06T16:32:56.992Z,66.48
2018-04-06T16:35:26.117Z,66.57
2018-04-06T16:37:54.697Z,66.58
2018-04-06T16:40:23.565Z,66.96
2018-04-06T16:42:52.283Z,67.36
2018-04-06T16:45:21.003Z,67.82
2018-04-06T16:47:49.727Z,67.66
2018-04-06T16:50:19.126Z,67.83
2018-04-06T16:52:47.742Z,67.94
2018-04-06T16:55:16.459Z,67.83
2018-04-06T16:57:45.017Z,68.05
2018-04-06T17:00:13.738Z,68.30
2018-04-06T17:02:42.458Z,68.24
2018-04-06T17:05:11.180Z,67.79
2018-04-06T17:07:39.901Z,68.27
2018-04-06T17:10:08.527Z,67.93
2018-04-06T17:12:37.247Z,68.33
2018-04-06T17:15:05.883Z,68.47
2018-04-06T17:17:34.488Z,68.28
2018-04-06T17:20:03.114Z,68.26
2018-04-06T17:22:31.833Z,68.56
2018-04-06T17:25:00.470Z,68.48
2018-04-06T17:27:29.178Z,68.37
2018-04-06T17:29:57.796Z,68.67
2018-04-06T17:32:26.395Z,68.74
2018-04-06T17:34:55.143Z,68.69
2018-04-06T17:37:23.862Z,68.64
2018-04-06T17:39:52.441Z,68.87
2018-04-06T17:42:21.137Z,68.40
2018-04-06T17:44:51.536Z,68.61
2018-04-06T17:47:20.255Z,68.94
2018-04-06T17:49:48.893Z,68.62
2018-04-06T17:52:17.738Z,68.81
2018-04-06T17:54:46.358Z,68.09
2018-04-06T17:57:15.949Z,67.74
2018-04-06T17:59:44.664Z,67.56
2018-04-06T18:02:13.356Z,67.90
2018-04-06T18:04:41.974Z,67.81
2018-04-06T18:07:10.721Z,68.04
2018-04-06T18:09:39.382Z,67.54
2018-04-06T18:12:07.980Z,66.95
2018-04-06T18:14:36.609Z,67.22
2018-04-06T18:17:06.997Z,67.33
2018-04-06T18:19:35.722Z,67.54
2018-04-06T18:22:04.468Z,67.47
2018-04-06T18:24:33.895Z,67.81
2018-04-06T18:27:02.634Z,67.88
2018-04-06T18:29:31.335Z,67.35
2018-04-06T18:32:00.059Z,67.63
2018-04-06T18:34:28.688Z,67.23
2018-04-06T18:36:57.405Z,66.95
2018-04-06T18:39:26.040Z,67.27
2018-04-06T18:41:54.844Z,66.67
2018-04-06T18:44:23.568Z,66.44
2018-04-06T18:46:52.235Z,66.75
2018-04-06T18:49:20.809Z,66.65
2018-04-06T18:51:49.530Z,66.57
2018-04-06T18:54:19.155Z,66.52
2018-04-06T18:56:47.877Z,65.98
2018-04-06T18:59:16.706Z,65.92
2018-04-06T19:01:45.421Z,66.26
2018-04-06T19:04:14.026Z,65.97
2018-04-06T19:06:43.765Z,65.97
2018-04-06T19:09:12.493Z,65.89
2018-04-06T19:11:41.151Z,66.22
2018-04-06T19:14:09.936Z,65.97
2018-04-06T19:16:38.658Z,66.62
2018-04-06T19:19:07.390Z,66.26
2018-04-06T19:21:37.919Z,66.33
2018-04-06T19:24:06.528Z,66.15
2018-04-06T19:26:35.171Z,65.88
2018-04-06T19:29:03.871Z,66.24
2018-04-06T19:31:32.558Z,66.31
2018-04-06T19:34:01.318Z,66.72
2018-04-06T19:36:30.199Z,66.99
2018-04-06T19:38:58.962Z,67.09
2018-04-06T19:41:27.592Z,67.18
2018-04-06T19:43:57.010Z,68.94
2018-04-06T19:46:25.637Z,68.20
2018-04-06T19:48:54.554Z,68.38
2018-04-06T19:51:23.173Z,68.86
2018-04-06T19:53:51.892Z,68.59
2018-04-06T19:56:20.532Z,69.13
2018-04-06T19:58:49.235Z,69.85
2018-04-06T20:01:17.957Z,69.85
2018-04-06T20:03:46.693Z,70.57
2018-04-06T20:06:15.418Z,70.44
2018-04-06T20:08:44.024Z,70.55
2018-04-06T20:11:12.657Z,70.21
2018-04-06T20:13:41.383Z,69.69
2018-04-06T20:16:10.089Z,70.17
2018-04-06T20:18:38.728Z,69.41
2018-04-06T20:21:07.531Z,69.19
2018-04-06T20:23:36.153Z,69.33
2018-04-06T20:26:04.876Z,69.57
2018-04-06T20:28:33.566Z,68.99
2018-04-06T20:31:02.218Z,68.96
2018-04-06T20:33:30.874Z,69.02
2018-04-06T20:35:59.543Z,69.32
2018-04-06T20:38:28.128Z,69.19
2018-04-06T20:40:57.013Z,68.65
2018-04-06T20:43:25.608Z,68.81
2018-04-06T20:45:54.317Z,68.55
2018-04-06T20:48:23.073Z,68.17
2018-04-06T20:50:51.896Z,67.82
2018-04-06T20:53:20.616Z,68.03
2018-04-06T20:55:49.337Z,68.31
2018-04-06T20:58:17.966Z,68.06
2018-04-06T21:00:46.681Z,67.70
2018-04-06T21:03:15.402Z,67.22
2018-04-06T21:05:44.325Z,67.98
2018-04-06T21:08:12.884Z,67.91
2018-04-06T21:10:41.568Z,68.21
2018-04-06T21:13:10.190Z,67.49
2018-04-06T21:15:38.911Z,67.45
2018-04-06T21:18:07.547Z,67.63
2018-04-06T21:20:36.169Z,67.43
2018-04-06T21:23:04.980Z,67.16
2018-04-06T21:25:33.699Z,67.37
2018-04-06T21:28:02.424Z,67.13
2018-04-06T21:30:30.983Z,67.33
2018-04-06T21:32:59.753Z,67.20
2018-04-06T21:35:28.592Z,67.49
2018-04-06T21:37:57.308Z,67.42
2018-04-06T21:40:27.735Z,67.62
2018-04-06T21:42:56.442Z,67.48
2018-04-06T21:45:25.279Z,67.08
2018-04-06T21:47:54.005Z,66.88
2018-04-06T21:50:22.687Z,66.66
2018-04-06T21:52:51.360Z,66.96
2018-04-06T21:55:20.807Z,66.95
2018-04-06T21:57:49.443Z,66.62
2018-04-06T22:00:18.214Z,66.34
2018-04-06T22:02:46.948Z,66.43
2018-04-06T22:05:17.162Z,66.42
2018-04-06T22:07:45.766Z,66.41
2018-04-06T22:10:14.519Z,66.35
2018-04-06T22:12:43.329Z,66.21
2018-04-06T22:15:13.100Z,66.40
2018-04-06T22:17:41.877Z,66.38
2018-04-06T22:20:10.406Z,66.94
2018-04-06T22:22:41.756Z,66.83
2018-04-06T22:25:10.452Z,66.95
2018-04-06T22:27:39.203Z,67.14
2018-04-06T22:30:07.896Z,66.99
2018-04-06T22:32:36.514Z,66.71
2018-04-06T22:35:05.072Z,67.19
2018-04-06T22:37:33.669Z,67.68
2018-04-06T22:40:04.087Z,68.03
2018-04-06T22:42:32.706Z,68.00
2018-04-06T22:45:01.431Z,68.30
2018-04-06T22:47:30.056Z,68.37
2018-04-06T22:49:58.682Z,68.28
2018-04-06T22:52:27.292Z,68.13
2018-04-06T22:54:55.974Z,68.49
2018-04-06T22:57:24.743Z,68.67
2018-04-06T22:59:55.163Z,68.80
2018-04-06T23:02:23.887Z,69.12
2018-04-06T23:04:52.570Z,68.57
2018-04-06T23:07:21.334Z,68.51
2018-04-06T23:09:50.054Z,68.51
2018-04-06T23:12:18.668Z,68.38
2018-04-06T23:14:47.396Z,68.52
2018-04-06T23:17:16.019Z,68.46
2018-04-06T23:19:44.673Z,68.58
2018-04-06T23:22:13.277Z,68.65
2018-04-06T23:24:41.993Z,68.83
2018-04-06T23:27:11.407Z,68.76
2018-04-06T23:29:40.237Z,68.62
2018-04-06T23:32:08.951Z,68.79
2018-04-06T23:34:37.677Z,68.73
2018-04-06T23:37:07.215Z,69.02
2018-04-06T23:39:35.918Z,68.47
2018-04-06T23:42:04.539Z,68.68
2018-04-06T23:44:33.261Z,68.91
2018-04-06T23:47:01.886Z,68.67
2018-04-06T23:49:30.606Z,68.50
2018-04-06T23:51:59.328Z,68.83
2018-04-06T23:54:27.957Z,68.46
2018-04-06T23:56:56.673Z,68.71
2018-04-06T23:59:25.393Z,68.51
